Time;durP1;ratioP1;P1;durP2;ratioP2;P2;SDS_P1;SDS_P2;PMS_P1;PMS_P2;Temp;Humidity;BMP_temperature;BMP_pressure;BME280_temperature;BME280_humidity;BME280_pressure;Samples;Min_cycle;Max_cycle;Signal;HPM_P1;HPM_P2
2020/12/15 00:00:23;;;;;;;;;;;;;;;;;;5007054;28;19926;-64
2020/12/15 00:02:49;;;;;;;;;;;;;;;;;;5003998;28;20005;-63
2020/12/15 00:05:16;;;;;;;;;;;;;;;;;;5010852;28;20385;-62
2020/12/15 00:07:42;;;;;;;;;;;;;;;;;;5004451;28;19932;-63
2020/12/15 00:10:09;;;;;;;;;;;;;;;;;;5009923;28;20124;-63
2020/12/15 00:12:35;;;;;;;;;;;;;;;;;;5004075;28;19926;-63
2020/12/15 00:15:02;;;;;;;;;;;;;;;;;;5010970;28;19935;-63
2020/12/15 00:17:28;;;;;;;;;;;;;;;;;;5008165;28;20305;-64
2020/12/15 00:19:55;;;;;;;;;;;;;;;;;;5005465;28;20004;-63
2020/12/15 00:22:21;;;;;;;;;;;;;;;;;;5002637;28;19925;-63
2020/12/15 00:24:48;;;;;;;;;;;;;;;;;;5009623;28;19925;-64
2020/12/15 00:27:14;;;;;;;;;;;;;;;;;;5005976;28;19926;-64
2020/12/15 00:29:41;;;;;;;;;;;;;;;;;;5004141;28;19933;-64
2020/12/15 00:32:07;;;;;;;;;;;;;;;;;;5009316;28;19964;-63
2020/12/15 00:34:34;;;;;;;;;;;;;;;;;;5010478;28;20386;-64
2020/12/15 00:37:00;;;;;;;;;;;;;;;;;;5008868;28;19936;-65
2020/12/15 00:39:27;;;;;;;;;;;;;;;;;;5010667;28;19926;-64
2020/12/15 00:41:53;;;;;;;;;;;;;;;;;;5010651;28;20024;-64
2020/12/15 00:44:20;;;;;;;;;;;;;;;;;;4998004;28;19936;-64
2020/12/15 00:46:46;;;;;;;;;;;;;;;;;;4999389;28;19929;-65
2020/12/15 00:49:13;;;;;;;;;;;;;;;;;;5003767;28;19926;-64
2020/12/15 00:51:39;;;;;;;;;;;;;;;;;;5010009;28;20031;-64
2020/12/15 00:54:06;;;;;;;;;;;;;;;;;;5009929;28;20362;-64
2020/12/15 00:56:32;;;;;;;;;;;;;;;;;;5011730;28;19929;-65
2020/12/15 00:58:59;;;;;;;;;;;;;;;;;;5010491;28;20288;-67
2020/12/15 01:01:25;;;;;;;;;;;;;;;;;;5001562;28;19932;-64
2020/12/15 01:03:52;;;;;;;;;;;;;;;;;;4994644;28;19925;-65
2020/12/15 01:06:19;;;;;;;;;;;;;;;;;;5010020;28;19979;-64
2020/12/15 01:08:45;;;;;;;;;;;;;;;;;;5002104;28;20020;-63
2020/12/15 01:11:12;;;;;;;;;;;;;;;;;;5009071;28;19934;-64
2020/12/15 01:13:38;;;;;;;;;;;;;;;;;;5004865;28;20396;-64
2020/12/15 01:16:05;;;;;;;;;;;;;;;;;;5007312;28;19926;-64
2020/12/15 01:18:31;;;;;;;;;;;;;;;;;;5009949;28;19991;-64
2020/12/15 01:20:58;;;;;;;;;;;;;;;;;;5007531;28;19925;-64
2020/12/15 01:23:24;;;;;;;;;;;;;;;;;;5009017;28;20305;-64
2020/12/15 01:25:51;;;;;;;;;;;;;;;;;;5003684;28;19969;-64
2020/12/15 01:28:17;;;;;;;;;;;;;;;;;;4993719;28;19925;-66
2020/12/15 01:30:44;;;;;;;;;;;;;;;;;;5001952;28;19934;-66
2020/12/15 01:33:10;;;;;;;;;;;;;;;;;;5003170;28;19932;-65
2020/12/15 01:35:37;;;;;;;;;;;;;;;;;;5009487;28;19932;-65
2020/12/15 01:38:03;;;;;;;;;;;;;;;;;;5011152;28;20274;-66
2020/12/15 01:40:30;;;;;;;;;;;;;;;;;;5009890;28;20184;-65
2020/12/15 01:42:56;;;;;;;;;;;;;;;;;;5004139;28;20008;-65
2020/12/15 01:45:24;;;;;;;;;;;;;;;;;;5006969;28;19925;-65
2020/12/15 01:47:51;;;;;;;;;;;;;;;;;;5009125;28;19992;-65
2020/12/15 01:50:17;;;;;;;;;;;;;;;;;;5005402;28;19932;-65
2020/12/15 01:52:43;;;;;;;;;;;;;;;;;;5010231;28;19936;-65
2020/12/15 01:55:10;;;;;;;;;;;;;;;;;;5011855;28;19929;-65
2020/12/15 01:57:39;;;;;;;;;;;;;;;;;;5014836;28;19992;-66
2020/12/15 02:00:06;;;;;;;;;;;;;;;;;;5002003;28;19926;-64
2020/12/15 02:02:32;;;;;;;;;;;;;;;;;;5003212;28;19956;-65
2020/12/15 02:04:59;;;;;;;;;;;;;;;;;;4996498;28;19933;-65
2020/12/15 02:07:25;;;;;;;;;;;;;;;;;;5006719;28;20322;-65
2020/12/15 02:09:52;;;;;;;;;;;;;;;;;;5012640;28;19925;-65
2020/12/15 02:12:18;;;;;;;;;;;;;;;;;;5013314;28;19947;-64
2020/12/15 02:14:45;;;;;;;;;;;;;;;;;;5012289;28;19960;-66
2020/12/15 02:17:11;;;;;;;;;;;;;;;;;;5008923;28;19925;-65
2020/12/15 02:19:37;;;;;;;;;;;;;;;;;;5012469;28;19943;-66
2020/12/15 02:22:04;;;;;;;;;;;;;;;;;;5006554;28;20342;-65
2020/12/15 02:24:30;;;;;;;;;;;;;;;;;;5013705;28;19932;-66
2020/12/15 02:26:57;;;;;;;;;;;;;;;;;;5012505;28;19933;-65
2020/12/15 02:29:23;;;;;;;;;;;;;;;;;;5012549;28;19925;-66
2020/12/15 02:31:50;;;;;;;;;;;;;;;;;;5011819;28;19929;-66
2020/12/15 02:34:16;;;;;;;;;;;;;;;;;;5005863;28;20309;-66
2020/12/15 02:36:43;;;;;;;;;;;;;;;;;;5000151;28;19931;-66
2020/12/15 02:39:09;;;;;;;;;;;;;;;;;;5012634;28;19940;-66
2020/12/15 02:41:36;;;;;;;;;;;;;;;;;;5012876;28;20034;-65
2020/12/15 02:44:02;;;;;;;;;;;;;;;;;;5013058;28;20020;-66
2020/12/15 02:46:29;;;;;;;;;;;;;;;;;;5012730;28;20386;-66
2020/12/15 02:48:55;;;;;;;;;;;;;;;;;;5011013;28;19956;-65
2020/12/15 02:51:22;;;;;;;;;;;;;;;;;;5000191;28;19930;-64
2020/12/15 02:53:48;;;;;;;;;;;;;;;;;;5011614;28;19925;-66
2020/12/15 02:56:15;;;;;;;;;;;;;;;;;;5009708;28;19930;-65
2020/12/15 02:58:41;;;;;;;;;;;;;;;;;;5013451;28;19925;-65
2020/12/15 03:01:07;;;;;;;;;;;;;;;;;;5009760;28;20305;-66
2020/12/15 03:03:34;;;;;;;;;;;;;;;;;;5006015;28;19932;-65
2020/12/15 03:06:00;;;;;;;;;;;;;;;;;;5011118;28;20349;-65
2020/12/15 03:08:27;;;;;;;;;;;;;;;;;;5012041;28;19925;-65
2020/12/15 03:10:53;;;;;;;;;;;;;;;;;;5005363;28;19932;-65
2020/12/15 03:13:20;;;;;;;;;;;;;;;;;;5010787;28;19933;-65
2020/12/15 03:15:46;;;;;;;;;;;;;;;;;;5002381;28;19925;-67
2020/12/15 03:18:13;;;;;;;;;;;;;;;;;;5005047;28;20405;-65
2020/12/15 03:20:46;;;;;;;;;;;;;;;;;;5011261;28;19933;-64
2020/12/15 03:23:12;;;;;;;;;;;;;;;;;;5008025;28;20382;-66
2020/12/15 03:25:39;;;;;;;;;;;;;;;;;;5012228;28;19925;-66
2020/12/15 03:28:05;;;;;;;;;;;;;;;;;;5008281;28;19932;-67
2020/12/15 03:30:32;;;;;;;;;;;;;;;;;;5010033;28;20012;-66
2020/12/15 03:32:58;;;;;;;;;;;;;;;;;;5013193;28;19932;-67
2020/12/15 03:35:25;;;;;;;;;;;;;;;;;;5008747;28;20086;-66
2020/12/15 03:37:54;;;;;;;;;;;;;;;;;;5012470;28;19933;-66
2020/12/15 03:40:20;;;;;;;;;;;;;;;;;;5006137;28;19930;-64
2020/12/15 03:42:47;;;;;;;;;;;;;;;;;;5007064;28;20556;-65
2020/12/15 03:45:13;;;;;;;;;;;;;;;;;;5006105;28;19926;-66
2020/12/15 03:47:40;;;;;;;;;;;;;;;;;;5011771;28;19930;-64
2020/12/15 03:50:09;;;;;;;;;;;;;;;;;;5008871;28;20287;-66
2020/12/15 03:52:35;;;;;;;;;;;;;;;;;;5011728;28;19925;-68
2020/12/15 03:55:02;;;;;;;;;;;;;;;;;;5009114;28;19932;-67
2020/12/15 03:57:28;;;;;;;;;;;;;;;;;;5004086;28;19932;-66
2020/12/15 03:59:55;;;;;;;;;;;;;;;;;;5009635;28;20469;-66
2020/12/15 04:02:21;;;;;;;;;;;;;;;;;;5011145;28;19932;-66
2020/12/15 04:04:48;;;;;;;;;;;;;;;;;;5009150;28;19944;-66
2020/12/15 04:07:14;;;;;;;;;;;;;;;;;;5006164;28;19947;-67
2020/12/15 04:09:41;;;;;;;;;;;;;;;;;;5002810;28;19933;-65
2020/12/15 04:12:07;;;;;;;;;;;;;;;;;;5013356;28;19926;-65
2020/12/15 04:14:33;;;;;;;;;;;;;;;;;;5008459;28;20024;-63
2020/12/15 04:17:00;;;;;;;;;;;;;;;;;;5010632;28;20200;-66
2020/12/15 04:19:26;;;;;;;;;;;;;;;;;;5005129;28;19926;-66
2020/12/15 04:21:53;;;;;;;;;;;;;;;;;;5006420;28;19925;-65
2020/12/15 04:24:19;;;;;;;;;;;;;;;;;;5010522;28;19935;-66
2020/12/15 04:26:46;;;;;;;;;;;;;;;;;;5007909;28;19925;-66
2020/12/15 04:29:12;;;;;;;;;;;;;;;;;;5011661;28;19932;-65
2020/12/15 04:31:39;;;;;;;;;;;;;;;;;;5009063;28;20293;-66
2020/12/15 04:34:05;;;;;;;;;;;;;;;;;;5008433;28;19926;-66
2020/12/15 04:36:32;;;;;;;;;;;;;;;;;;5001495;28;19926;-66
2020/12/15 04:38:58;;;;;;;;;;;;;;;;;;5004867;28;20370;-66
2020/12/15 04:41:25;;;;;;;;;;;;;;;;;;5010623;28;20008;-66
2020/12/15 04:43:51;;;;;;;;;;;;;;;;;;5001615;28;19933;-67
2020/12/15 04:46:18;;;;;;;;;;;;;;;;;;5010300;28;19932;-66
2020/12/15 04:48:44;;;;;;;;;;;;;;;;;;5006763;28;20008;-66
2020/12/15 04:51:11;;;;;;;;;;;;;;;;;;4995548;28;20013;-65
2020/12/15 04:53:37;;;;;;;;;;;;;;;;;;4994285;28;20002;-66
2020/12/15 04:56:04;;;;;;;;;;;;;;;;;;5009876;28;19968;-65
2020/12/15 04:58:30;;;;;;;;;;;;;;;;;;5008606;28;19925;-66
2020/12/15 05:00:57;;;;;;;;;;;;;;;;;;5011932;28;19925;-66
2020/12/15 05:03:23;;;;;;;;;;;;;;;;;;5009409;28;19925;-65
2020/12/15 05:05:50;;;;;;;;;;;;;;;;;;5004875;28;20378;-66
2020/12/15 05:08:16;;;;;;;;;;;;;;;;;;5002477;28;19933;-65
2020/12/15 05:10:43;;;;;;;;;;;;;;;;;;5003437;28;19989;-65
2020/12/15 05:13:09;;;;;;;;;;;;;;;;;;5010156;28;19951;-65
2020/12/15 05:15:35;;;;;;;;;;;;;;;;;;5008593;28;19926;-66
2020/12/15 05:18:02;;;;;;;;;;;;;;;;;;5006034;28;20292;-66
2020/12/15 05:20:29;;;;;;;;;;;;;;;;;;5005145;28;19925;-67
2020/12/15 05:22:55;;;;;;;;;;;;;;;;;;5008138;28;19949;-65
2020/12/15 05:25:22;;;;;;;;;;;;;;;;;;5007500;28;19983;-65
2020/12/15 05:27:48;;;;;;;;;;;;;;;;;;5004897;28;19925;-66
2020/12/15 05:30:15;;;;;;;;;;;;;;;;;;5002695;28;20294;-66
2020/12/15 05:32:41;;;;;;;;;;;;;;;;;;5012559;28;20390;-65
2020/12/15 05:35:07;;;;;;;;;;;;;;;;;;5011457;28;20336;-66
2020/12/15 05:37:34;;;;;;;;;;;;;;;;;;5009633;28;19938;-65
2020/12/15 05:40:00;;;;;;;;;;;;;;;;;;5004868;28;19983;-65
2020/12/15 05:42:27;;;;;;;;;;;;;;;;;;5002062;28;19932;-65
2020/12/15 05:44:53;;;;;;;;;;;;;;;;;;4999188;28;20032;-65
2020/12/15 05:47:20;;;;;;;;;;;;;;;;;;5006511;28;19933;-65
2020/12/15 05:49:46;;;;;;;;;;;;;;;;;;4999280;28;19933;-66
2020/12/15 05:52:13;;;;;;;;;;;;;;;;;;5009033;28;19925;-66
2020/12/15 05:54:39;;;;;;;;;;;;;;;;;;5009287;28;19934;-66
2020/12/15 05:57:05;;;;;;;;;;;;;;;;;;5000226;28;19930;-65
2020/12/15 05:59:32;;;;;;;;;;;;;;;;;;5009933;28;19926;-65
2020/12/15 06:01:58;;;;;;;;;;;;;;;;;;5009896;28;19926;-65
2020/12/15 06:04:25;;;;;;;;;;;;;;;;;;5007182;28;19936;-65
2020/12/15 06:06:51;;;;;;;;;;;;;;;;;;5009176;28;19925;-66
2020/12/15 06:09:18;;;;;;;;;;;;;;;;;;5010343;28;19926;-65
2020/12/15 06:11:44;;;;;;;;;;;;;;;;;;5012831;28;19926;-64
2020/12/15 06:14:13;;;;;;;;;;;;;;;;;;5011046;28;19932;-64
2020/12/15 06:16:42;;;;;;;;;;;;;;;;;;5011090;28;19933;-65
2020/12/15 06:19:08;;;;;;;;;;;;;;;;;;5010130;28;19969;-65
2020/12/15 06:21:35;;;;;;;;;;;;;;;;;;5003490;28;19930;-65
2020/12/15 06:24:01;;;;;;;;;;;;;;;;;;5003458;28;19925;-64
2020/12/15 06:26:28;;;;;;;;;;;;;;;;;;5001860;28;19925;-65
2020/12/15 06:28:54;;;;;;;;;;;;;;;;;;5004084;28;20393;-66
2020/12/15 06:31:21;;;;;;;;;;;;;;;;;;5003810;28;19933;-65
2020/12/15 06:33:48;;;;;;;;;;;;;;;;;;5003875;28;20398;-65
2020/12/15 06:36:14;;;;;;;;;;;;;;;;;;5001901;28;20420;-64
2020/12/15 06:38:41;;;;;;;;;;;;;;;;;;5004837;28;20401;-64
2020/12/15 06:41:10;;;;;;;;;;;;;;;;;;5005654;28;20316;-63
2020/12/15 06:43:36;;;;;;;;;;;;;;;;;;5003709;28;19933;-63
2020/12/15 06:46:03;;;;;;;;;;;;;;;;;;5004485;28;19987;-64
2020/12/15 06:48:29;;;;;;;;;;;;;;;;;;5006803;28;19940;-65
2020/12/15 06:50:56;;;;;;;;;;;;;;;;;;5012965;28;19933;-64
2020/12/15 06:53:22;;;;;;;;;;;;;;;;;;5011806;28;19932;-64
2020/12/15 06:55:49;;;;;;;;;;;;;;;;;;5013136;28;19931;-64
2020/12/15 06:58:15;;;;;;;;;;;;;;;;;;5000026;28;19932;-64
2020/12/15 07:00:42;;;;;;;;;;;;;;;;;;5012084;28;19925;-65
2020/12/15 07:03:08;;;;;;;;;;;;;;;;;;5009114;28;19929;-64
2020/12/15 07:05:35;;;;;;;;;;;;;;;;;;5005483;28;19926;-65
2020/12/15 07:08:01;;;;;;;;;;;;;;;;;;5007343;28;19940;-65
2020/12/15 07:10:28;;;;;;;;;;;;;;;;;;5003642;28;19992;-65
2020/12/15 07:12:58;;;;;;;;;;;;;;;;;;5007365;28;20299;-64
2020/12/15 07:15:25;;;;;;;;;;;;;;;;;;5003648;28;19980;-64
2020/12/15 07:17:53;;;;;;;;;;;;;;;;;;5008704;28;19929;-64
2020/12/15 07:20:19;;;;;;;;;;;;;;;;;;5014069;28;20019;-65
2020/12/15 07:22:46;;;;;;;;;;;;;;;;;;5010996;28;19934;-64
2020/12/15 07:25:12;;;;;;;;;;;;;;;;;;5005046;28;19933;-64
2020/12/15 07:27:39;;;;;;;;;;;;;;;;;;5004267;28;19933;-64
2020/12/15 07:30:05;;;;;;;;;;;;;;;;;;5009492;28;19933;-64
2020/12/15 07:32:36;;;;;;;;;;;;;;;;;;5001475;28;19989;-64
2020/12/15 07:35:02;;;;;;;;;;;;;;;;;;5006404;28;19926;-64
2020/12/15 07:37:29;;;;;;;;;;;;;;;;;;5006764;28;20538;-63
2020/12/15 07:39:55;;;;;;;;;;;;;;;;;;5004544;28;19926;-64
2020/12/15 07:42:22;;;;;;;;;;;;;;;;;;5010200;28;19926;-64
2020/12/15 07:44:48;;;;;;;;;;;;;;;;;;5008287;28;20370;-64
2020/12/15 07:47:15;;;;;;;;;;;;;;;;;;5005049;28;20356;-64
2020/12/15 07:49:41;;;;;;;;;;;;;;;;;;5006287;28;19929;-64
2020/12/15 07:52:08;;;;;;;;;;;;;;;;;;5007483;28;19925;-64
2020/12/15 07:54:34;;;;;;;;;;;;;;;;;;5008941;28;19979;-64
2020/12/15 07:57:01;;;;;;;;;;;;;;;;;;5018459;28;19925;-67
2020/12/15 07:59:27;;;;;;;;;;;;;;;;;;5010572;28;20275;-66
2020/12/15 08:01:54;;;;;;;;;;;;;;;;;;5001849;28;19925;-66
2020/12/15 08:04:20;;;;;;;;;;;;;;;;;;5008518;28;19976;-65
2020/12/15 08:06:48;;;;;;;;;;;;;;;;;;5014502;28;19925;-65
2020/12/15 08:09:14;;;;;;;;;;;;;;;;;;5009219;28;19925;-66
2020/12/15 08:11:40;;;;;;;;;;;;;;;;;;5007287;28;19936;-66
2020/12/15 08:14:07;;;;;;;;;;;;;;;;;;5005090;28;19925;-67
2020/12/15 08:16:33;;;;;;;;;;;;;;;;;;5010526;28;19932;-65
2020/12/15 08:19:00;;;;;;;;;;;;;;;;;;5010684;28;20443;-65
2020/12/15 08:21:26;;;;;;;;;;;;;;;;;;5006398;28;20372;-66
2020/12/15 08:23:53;;;;;;;;;;;;;;;;;;5010943;28;19930;-64
2020/12/15 08:26:19;;;;;;;;;;;;;;;;;;5006823;28;19957;-65
2020/12/15 08:28:46;;;;;;;;;;;;;;;;;;5005623;28;19925;-64
2020/12/15 08:31:12;;;;;;;;;;;;;;;;;;5008155;28;19929;-67
2020/12/15 08:33:39;;;;;;;;;;;;;;;;;;5008684;28;20377;-66
2020/12/15 08:36:05;;;;;;;;;;;;;;;;;;5009506;28;19925;-67
2020/12/15 08:38:32;;;;;;;;;;;;;;;;;;5007372;28;20409;-66
2020/12/15 08:40:58;;;;;;;;;;;;;;;;;;5006662;28;19926;-66
2020/12/15 08:43:25;;;;;;;;;;;;;;;;;;5003883;28;19925;-67
2020/12/15 08:45:51;;;;;;;;;;;;;;;;;;5010476;28;20382;-65
2020/12/15 08:48:18;;;;;;;;;;;;;;;;;;5007426;28;20392;-65
2020/12/15 08:50:44;;;;;;;;;;;;;;;;;;5010322;28;19940;-65
2020/12/15 08:53:11;;;;;;;;;;;;;;;;;;5012664;28;20060;-67
2020/12/15 08:55:38;;;;;;;;;;;;;;;;;;5010228;28;19930;-67
2020/12/15 08:58:04;;;;;;;;;;;;;;;;;;5009586;28;19925;-67
2020/12/15 09:00:34;;;;;;;;;;;;;;;;;;5010631;28;19932;-66
2020/12/15 09:03:01;;;;;;;;;;;;;;;;;;5006735;28;20378;-67
2020/12/15 09:05:27;;;;;;;;;;;;;;;;;;5013558;28;20020;-67
2020/12/15 09:07:54;;;;;;;;;;;;;;;;;;5008705;28;19932;-67
2020/12/15 09:10:20;;;;;;;;;;;;;;;;;;5012669;28;20460;-65
2020/12/15 09:12:47;;;;;;;;;;;;;;;;;;5009595;28;19972;-66
2020/12/15 09:15:13;;;;;;;;;;;;;;;;;;5008520;28;19940;-66
2020/12/15 09:17:39;;;;;;;;;;;;;;;;;;5008019;28;20016;-65
2020/12/15 09:20:08;;;;;;;;;;;;;;;;;;5011268;28;19932;-65
2020/12/15 09:22:34;;;;;;;;;;;;;;;;;;5010335;28;19932;-66
2020/12/15 09:25:01;;;;;;;;;;;;;;;;;;5004458;28;19932;-65
2020/12/15 09:27:28;;;;;;;;;;;;;;;;;;5010154;28;20003;-66
2020/12/15 09:29:54;;;;;;;;;;;;;;;;;;5013691;28;19925;-64
2020/12/15 09:32:21;;;;;;;;;;;;;;;;;;5011764;28;19925;-67
2020/12/15 09:34:47;;;;;;;;;;;;;;;;;;5011811;28;19933;-67
2020/12/15 09:37:14;;;;;;;;;;;;;;;;;;5011740;28;20281;-67
2020/12/15 09:39:40;;;;;;;;;;;;;;;;;;5013428;28;20021;-66
2020/12/15 09:42:07;;;;;;;;;;;;;;;;;;5004682;28;19940;-66
2020/12/15 09:44:33;;;;;;;;;;;;;;;;;;5014216;28;20532;-66
2020/12/15 09:47:00;;;;;;;;;;;;;;;;;;5012660;28;19947;-66
2020/12/15 09:49:26;;;;;;;;;;;;;;;;;;5012520;28;19979;-67
2020/12/15 09:51:53;;;;;;;;;;;;;;;;;;5011127;28;19936;-66
2020/12/15 09:54:19;;;;;;;;;;;;;;;;;;5012751;28;19932;-67
2020/12/15 09:56:46;;;;;;;;;;;;;;;;;;5011887;28;19941;-65
2020/12/15 09:59:14;;;;;;;;;;;;;;;;;;5015085;28;20474;-66
2020/12/15 10:01:40;;;;;;;;;;;;;;;;;;5010103;28;19937;-66
2020/12/15 10:04:07;;;;;;;;;;;;;;;;;;5011844;28;19944;-66
2020/12/15 10:06:33;;;;;;;;;;;;;;;;;;5013937;28;19980;-66
2020/12/15 10:09:01;;;;;;;;;;;;;;;;;;5011063;28;19932;-66
2020/12/15 10:11:27;;;;;;;;;;;;;;;;;;5011159;28;20309;-66
2020/12/15 10:13:54;;;;;;;;;;;;;;;;;;5011230;28;19926;-66
2020/12/15 10:16:20;;;;;;;;;;;;;;;;;;5007495;28;20008;-66
2020/12/15 10:18:47;;;;;;;;;;;;;;;;;;5008340;28;19929;-67
2020/12/15 10:21:13;;;;;;;;;;;;;;;;;;5007561;28;19933;-66
2020/12/15 10:23:40;;;;;;;;;;;;;;;;;;5009712;28;20397;-66
2020/12/15 10:26:06;;;;;;;;;;;;;;;;;;5013050;28;19933;-66
2020/12/15 10:28:33;;;;;;;;;;;;;;;;;;5010026;28;20368;-66
2020/12/15 10:30:59;;;;;;;;;;;;;;;;;;5011773;28;19929;-66
2020/12/15 10:33:26;;;;;;;;;;;;;;;;;;5010832;28;19929;-66
2020/12/15 10:35:54;;;;;;;;;;;;;;;;;;5009709;28;20032;-66
2020/12/15 10:38:21;;;;;;;;;;;;;;;;;;5007596;28;19926;-66
2020/12/15 10:40:47;;;;;;;;;;;;;;;;;;5012713;28;20301;-65
2020/12/15 10:43:16;;;;;;;;;;;;;;;;;;5012656;28;19932;-66
2020/12/15 10:45:43;;;;;;;;;;;;;;;;;;5010554;28;20313;-66
2020/12/15 10:48:09;;;;;;;;;;;;;;;;;;5009926;28;20023;-66
2020/12/15 10:50:36;;;;;;;;;;;;;;;;;;5012627;28;20013;-66
2020/12/15 10:53:05;;;;;;;;;;;;;;;;;;5012405;28;19933;-67
2020/12/15 10:55:31;;;;;;;;;;;;;;;;;;5045679;23;19933;-61
2020/12/15 10:57:58;;;;;;;;;;;;;;;;;;5052537;28;19933;-60
2020/12/15 11:00:24;;;;;;;;;;;;;;;;;;5053397;28;19924;-63
2020/12/15 11:02:51;;;;;;;;;;;;;;;;;;5050152;28;20013;-61
2020/12/15 11:05:17;;;;;;;;;;;;;;;;;;5035727;28;19953;-62
2020/12/15 11:07:45;;;;;;;;;;;;;;;;;;5052653;28;20007;-63
2020/12/15 11:10:11;;;;;;;;;;;;;;;;;;5053280;28;20427;-63
2020/12/15 11:12:38;;;;;;;;;;;;;;;;;;5047413;28;20014;-63
2020/12/15 11:15:04;;;;;;;;;;;;;;;;;;5049054;28;19951;-63
2020/12/15 11:17:31;;;;;;;;;;;;;;;;;;5050381;28;19932;-63
2020/12/15 11:19:57;;;;;;;;;;;;;;;;;;5050071;28;20384;-63
2020/12/15 11:22:24;;;;;;;;;;;;;;;;;;5043402;28;19929;-63
2020/12/15 11:24:50;;;;;;;;;;;;;;;;;;5045431;28;19932;-61
2020/12/15 11:27:18;;;;;;;;;;;;;;;;;;5039187;28;20013;-61
2020/12/15 11:29:45;;;;;;;;;;;;;;;;;;5041292;28;20312;-63
2020/12/15 11:32:11;;;;;;;;;;;;;;;;;;5039111;28;19939;-63
2020/12/15 11:34:38;;;;;;;;;;;;;;;;;;5051089;28;20307;-61
2020/12/15 11:37:09;;;;;;;;;;;;;;;;;;5049635;28;20011;-60
2020/12/15 11:39:36;;;;;;;;;;;;;;;;;;5052114;28;19975;-62
2020/12/15 11:42:02;;;;;;;;;;;;;;;;;;5039958;28;19931;-63
2020/12/15 11:44:29;;;;;;;;;;;;;;;;;;5040513;28;19929;-61
2020/12/15 11:46:55;;;;;;;;;;;;;;;;;;5043754;28;20484;-62
2020/12/15 11:49:22;;;;;;;;;;;;;;;;;;5049929;28;19924;-63
2020/12/15 11:51:48;;;;;;;;;;;;;;;;;;5052977;28;19967;-63
2020/12/15 11:54:15;;;;;;;;;;;;;;;;;;5051046;28;19929;-63
2020/12/15 11:56:41;;;;;;;;;;;;;;;;;;5047265;28;20107;-61
2020/12/15 11:59:08;;;;;;;;;;;;;;;;;;5039585;28;20399;-64
2020/12/15 12:01:34;;;;;;;;;;;;;;;;;;5042103;28;19932;-63
2020/12/15 12:04:01;;;;;;;;;;;;;;;;;;5047054;28;19955;-63
2020/12/15 12:06:27;;;;;;;;;;;;;;;;;;5044468;28;19933;-62
2020/12/15 12:08:54;;;;;;;;;;;;;;;;;;5053014;28;19959;-62
2020/12/15 12:11:20;;;;;;;;;;;;;;;;;;5051438;28;19925;-62
2020/12/15 12:13:47;;;;;;;;;;;;;;;;;;5048158;28;19925;-63
2020/12/15 12:16:13;;;;;;;;;;;;;;;;;;5048692;28;19924;-62
2020/12/15 12:18:40;;;;;;;;;;;;;;;;;;5045624;28;20346;-63
2020/12/15 12:21:06;;;;;;;;;;;;;;;;;;5043117;28;19958;-63
2020/12/15 12:23:32;;;;;;;;;;;;;;;;;;5048309;28;20381;-62
2020/12/15 12:25:59;;;;;;;;;;;;;;;;;;5039808;28;19942;-63
2020/12/15 12:28:25;;;;;;;;;;;;;;;;;;5047001;28;20319;-63
2020/12/15 12:30:52;;;;;;;;;;;;;;;;;;5040746;28;19925;-63
2020/12/15 12:33:18;;;;;;;;;;;;;;;;;;5049793;28;20285;-63
2020/12/15 12:35:51;;;;;;;;;;;;;;;;;;5044275;28;19929;-64
2020/12/15 12:38:17;;;;;;;;;;;;;;;;;;5049061;28;20326;-62
2020/12/15 12:40:44;;;;;;;;;;;;;;;;;;5046223;28;19970;-62
2020/12/15 12:43:10;;;;;;;;;;;;;;;;;;5047925;28;20013;-62
2020/12/15 12:45:40;;;;;;;;;;;;;;;;;;5041618;28;19983;-63
2020/12/15 12:48:06;;;;;;;;;;;;;;;;;;5048697;28;19932;-63
2020/12/15 12:50:33;;;;;;;;;;;;;;;;;;5043427;28;19925;-63
2020/12/15 12:52:59;;;;;;;;;;;;;;;;;;5039917;28;19929;-63
2020/12/15 12:55:26;;;;;;;;;;;;;;;;;;5033025;28;20373;-63
2020/12/15 12:57:53;;;;;;;;;;;;;;;;;;5045999;28;20007;-63
2020/12/15 13:00:20;;;;;;;;;;;;;;;;;;5045106;28;20026;-64
2020/12/15 13:02:46;;;;;;;;;;;;;;;;;;5044321;28;19939;-64
2020/12/15 13:05:13;;;;;;;;;;;;;;;;;;5045613;28;19931;-62
2020/12/15 13:07:41;;;;;;;;;;;;;;;;;;5047459;28;20470;-63
2020/12/15 13:10:07;;;;;;;;;;;;;;;;;;5031746;28;19972;-62
2020/12/15 13:12:34;;;;;;;;;;;;;;;;;;5048300;28;19978;-62
2020/12/15 13:15:00;;;;;;;;;;;;;;;;;;5047784;28;20361;-62
2020/12/15 13:17:27;;;;;;;;;;;;;;;;;;5049563;28;19978;-61
2020/12/15 13:19:53;;;;;;;;;;;;;;;;;;5048581;28;20274;-63
2020/12/15 13:22:24;;;;;;;;;;;;;;;;;;5045744;28;20008;-63
2020/12/15 13:24:51;;;;;;;;;;;;;;;;;;5050919;28;20007;-62
2020/12/15 13:27:17;;;;;;;;;;;;;;;;;;5049943;28;19948;-63
2020/12/15 13:29:44;;;;;;;;;;;;;;;;;;5039623;28;19978;-63
2020/12/15 13:32:10;;;;;;;;;;;;;;;;;;5046842;28;20384;-62
2020/12/15 13:34:37;;;;;;;;;;;;;;;;;;5050028;28;19925;-63
2020/12/15 13:37:03;;;;;;;;;;;;;;;;;;5049713;28;19979;-62
2020/12/15 13:39:30;;;;;;;;;;;;;;;;;;5050305;28;19925;-65
2020/12/15 13:41:56;;;;;;;;;;;;;;;;;;5048697;28;20019;-63
2020/12/15 13:44:23;;;;;;;;;;;;;;;;;;5046921;28;19931;-63
2020/12/15 13:46:49;;;;;;;;;;;;;;;;;;5040658;28;19924;-63
2020/12/15 13:49:16;;;;;;;;;;;;;;;;;;5049702;28;19929;-63
2020/12/15 13:51:42;;;;;;;;;;;;;;;;;;5053486;28;19947;-63
2020/12/15 13:54:09;;;;;;;;;;;;;;;;;;5046425;28;20111;-63
2020/12/15 13:56:36;;;;;;;;;;;;;;;;;;5042880;28;19976;-64
2020/12/15 13:59:02;;;;;;;;;;;;;;;;;;5042183;28;19972;-63
2020/12/15 14:01:29;;;;;;;;;;;;;;;;;;5044339;28;20437;-63
2020/12/15 14:03:55;;;;;;;;;;;;;;;;;;5052879;28;20300;-64
2020/12/15 14:06:22;;;;;;;;;;;;;;;;;;5053611;28;19925;-62
2020/12/15 14:08:48;;;;;;;;;;;;;;;;;;5052834;28;20389;-62
2020/12/15 14:11:15;;;;;;;;;;;;;;;;;;5047100;28;19929;-63
2020/12/15 14:13:42;;;;;;;;;;;;;;;;;;5045782;28;19924;-63
2020/12/15 14:16:09;;;;;;;;;;;;;;;;;;5054280;28;19928;-63
2020/12/15 14:18:37;;;;;;;;;;;;;;;;;;5052641;28;19925;-62
2020/12/15 14:21:03;;;;;;;;;;;;;;;;;;5047622;28;20377;-63
2020/12/15 14:23:32;;;;;;;;;;;;;;;;;;5051315;28;19931;-63
2020/12/15 14:25:58;;;;;;;;;;;;;;;;;;5048766;28;20385;-62
2020/12/15 14:28:25;;;;;;;;;;;;;;;;;;5035045;28;19929;-62
2020/12/15 14:30:51;;;;;;;;;;;;;;;;;;5052644;28;20393;-62
2020/12/15 14:33:18;;;;;;;;;;;;;;;;;;5048025;28;19925;-63
2020/12/15 14:35:44;;;;;;;;;;;;;;;;;;5050506;28;19931;-63
2020/12/15 14:38:11;;;;;;;;;;;;;;;;;;5053325;28;19982;-64
2020/12/15 14:40:37;;;;;;;;;;;;;;;;;;5043588;28;19925;-63
2020/12/15 14:43:04;;;;;;;;;;;;;;;;;;5048060;28;19925;-63
2020/12/15 14:45:30;;;;;;;;;;;;;;;;;;5039811;28;20304;-63
2020/12/15 14:47:57;;;;;;;;;;;;;;;;;;5048693;28;19970;-63
2020/12/15 14:50:23;;;;;;;;;;;;;;;;;;5047437;28;20441;-63
2020/12/15 14:52:50;;;;;;;;;;;;;;;;;;5046224;28;19932;-63
2020/12/15 14:55:16;;;;;;;;;;;;;;;;;;5041146;28;19925;-61
2020/12/15 14:57:43;;;;;;;;;;;;;;;;;;5050707;28;20381;-62
2020/12/15 15:00:09;;;;;;;;;;;;;;;;;;5051778;28;19932;-63
2020/12/15 15:02:36;;;;;;;;;;;;;;;;;;5046528;28;20004;-62
2020/12/15 15:05:02;;;;;;;;;;;;;;;;;;5052422;28;19925;-62
2020/12/15 15:07:29;;;;;;;;;;;;;;;;;;5050283;28;19937;-63
2020/12/15 15:09:55;;;;;;;;;;;;;;;;;;5042157;28;19933;-62
2020/12/15 15:12:22;;;;;;;;;;;;;;;;;;5044632;28;20327;-63
2020/12/15 15:14:48;;;;;;;;;;;;;;;;;;5046604;28;19929;-62
2020/12/15 15:17:15;;;;;;;;;;;;;;;;;;5050614;28;20193;-64
2020/12/15 15:19:41;;;;;;;;;;;;;;;;;;5052751;28;19925;-63
2020/12/15 15:22:08;;;;;;;;;;;;;;;;;;5049023;28;20058;-62
2020/12/15 15:24:34;;;;;;;;;;;;;;;;;;5050237;28;19950;-63
2020/12/15 15:27:01;;;;;;;;;;;;;;;;;;5046318;28;19932;-63
2020/12/15 15:29:27;;;;;;;;;;;;;;;;;;5037832;28;21058;-63
2020/12/15 15:31:54;;;;;;;;;;;;;;;;;;5042018;28;19928;-63
2020/12/15 15:34:20;;;;;;;;;;;;;;;;;;5045419;28;21124;-63
2020/12/15 15:36:47;;;;;;;;;;;;;;;;;;5047183;28;19929;-62
2020/12/15 15:39:13;;;;;;;;;;;;;;;;;;5036817;28;20278;-63
2020/12/15 15:41:40;;;;;;;;;;;;;;;;;;5039338;28;19925;-63
2020/12/15 15:44:06;;;;;;;;;;;;;;;;;;5043284;28;20400;-62
2020/12/15 15:46:33;;;;;;;;;;;;;;;;;;5043048;28;19925;-61
2020/12/15 15:48:59;;;;;;;;;;;;;;;;;;5046345;28;20404;-63
2020/12/15 15:51:26;;;;;;;;;;;;;;;;;;5035171;28;19929;-64
2020/12/15 15:53:52;;;;;;;;;;;;;;;;;;5035670;28;19960;-62
2020/12/15 15:56:19;;;;;;;;;;;;;;;;;;5039798;28;19935;-63
2020/12/15 15:58:45;;;;;;;;;;;;;;;;;;5039692;28;20424;-63
2020/12/15 16:01:12;;;;;;;;;;;;;;;;;;5041402;28;19926;-64
2020/12/15 16:03:38;;;;;;;;;;;;;;;;;;5047654;28;19924;-64
2020/12/15 16:06:05;;;;;;;;;;;;;;;;;;5049052;28;20444;-62
2020/12/15 16:08:31;;;;;;;;;;;;;;;;;;5044656;28;19925;-63
2020/12/15 16:10:58;;;;;;;;;;;;;;;;;;5040722;28;19980;-62
2020/12/15 16:13:25;;;;;;;;;;;;;;;;;;5046571;28;19935;-62
2020/12/15 16:15:51;;;;;;;;;;;;;;;;;;5046517;28;19931;-62
2020/12/15 16:18:18;;;;;;;;;;;;;;;;;;5041476;28;19931;-63
2020/12/15 16:20:44;;;;;;;;;;;;;;;;;;5046032;28;20023;-65
2020/12/15 16:23:11;;;;;;;;;;;;;;;;;;5043809;28;19935;-64
2020/12/15 16:25:37;;;;;;;;;;;;;;;;;;5038464;28;20016;-61
2020/12/15 16:28:04;;;;;;;;;;;;;;;;;;5039977;28;20296;-61
2020/12/15 16:30:30;;;;;;;;;;;;;;;;;;5035729;28;19936;-61
2020/12/15 16:32:57;;;;;;;;;;;;;;;;;;5035711;28;20008;-62
2020/12/15 16:35:24;;;;;;;;;;;;;;;;;;5043115;28;19932;-62
2020/12/15 16:37:50;;;;;;;;;;;;;;;;;;5045953;28;20015;-62
2020/12/15 16:40:17;;;;;;;;;;;;;;;;;;5045115;28;21059;-65